Terminal Aerodrome Forecast
Issued by NWS

Home | Current Version | Previous Version | Text Only | Print | Product List | Glossary On
Versions: 1 2 3 4 5 6 7 8 9 10 11 12 13 14
000
FTUS43 KPAH 191700
TAFCGI
TAF
KCGI 191720Z 1918/2018 08005KT P6SM SCT045
     FM200000 12003KT P6SM SKC
     FM200500 00000KT 4SM BR SKC
      TEMPO 2008/2012 2SM BR
     FM201500 19005KT P6SM SCT040=

USA.gov is the U.S. government's official web portal to all federal, state and local government web resources and services.